Time;durP1;ratioP1;P1;durP2;ratioP2;P2;SDS_P1;SDS_P2;PMS_P1;PMS_P2;Temp;Humidity;BMP_temperature;BMP_pressure;BME280_temperature;BME280_humidity;BME280_pressure;Samples;Min_cycle;Max_cycle;Signal;HPM_P1;HPM_P2
2022/11/09 00:02:01;;;;;;;9.70;6.70;;;;;;;11.63;100.00;99828.41;5068677;28;20198;-77
2022/11/09 00:04:26;;;;;;;8.13;6.53;;;;;;;11.61;100.00;99819.78;5060370;28;20749;-76
2022/11/09 00:06:52;;;;;;;8.13;6.13;;;;;;;11.60;100.00;99828.44;5064923;28;20661;-76
2022/11/09 00:09:17;;;;;;;5.93;5.37;;;;;;;11.58;100.00;99845.78;5059736;28;20273;-77
2022/11/09 00:11:42;;;;;;;5.53;5.03;;;;;;;11.56;100.00;99844.94;5063116;28;20208;-76
2022/11/09 00:14:13;;;;;;;5.40;4.90;;;;;;;11.57;100.00;99859.59;5060523;28;20218;-77
2022/11/09 00:16:39;;;;;;;5.20;4.70;;;;;;;11.55;100.00;99854.47;5065280;28;20199;-77
2022/11/09 00:19:04;;;;;;;5.97;5.37;;;;;;;11.54;100.00;99846.72;5061932;28;20224;-76
2022/11/09 00:21:29;;;;;;;6.13;5.57;;;;;;;11.53;100.00;99861.41;5058779;28;20210;-77
2022/11/09 00:23:56;;;;;;;6.17;5.63;;;;;;;11.51;100.00;99859.72;5062323;28;20204;-76
2022/11/09 00:26:21;;;;;;;5.90;5.30;;;;;;;11.49;100.00;99883.09;5065742;28;20210;-77
2022/11/09 00:28:48;;;;;;;5.33;4.90;;;;;;;11.50;100.00;99910.69;5066419;28;20198;-77
2022/11/09 00:31:17;;;;;;;6.77;5.47;;;;;;;11.50;100.00;99926.25;5065057;28;20206;-77
2022/11/09 00:33:42;;;;;;;5.20;4.80;;;;;;;11.50;100.00;99925.38;5072934;28;20174;-76
2022/11/09 00:36:12;;;;;;;5.30;4.80;;;;;;;11.51;100.00;99922.78;5068170;28;20189;-76
2022/11/09 00:38:39;;;;;;;5.47;5.07;;;;;;;11.50;100.00;99925.38;5066799;28;20208;-76
2022/11/09 00:41:06;;;;;;;6.07;5.33;;;;;;;11.49;100.00;99921.13;5075419;28;20268;-76
2022/11/09 00:43:32;;;;;;;4.70;4.30;;;;;;;11.49;100.00;99924.53;5059308;28;20218;-74
2022/11/09 00:45:57;;;;;;;5.30;4.90;;;;;;;11.48;100.00;99922.84;5069564;28;20206;-75
2022/11/09 00:48:23;;;;;;;5.50;5.10;;;;;;;11.48;100.00;99917.66;5063991;28;20222;-76
2022/11/09 00:50:57;;;;;;;6.27;5.67;;;;;;;11.47;100.00;99915.94;5067366;28;20248;-76
2022/11/09 00:53:23;;;;;;;5.73;5.23;;;;;;;11.47;100.00;99917.69;5068157;28;20199;-77
2022/11/09 00:55:57;;;;;;;5.60;5.10;;;;;;;11.47;100.00;99920.28;5063095;28;20235;-76
2022/11/09 00:58:23;;;;;;;5.93;5.03;;;;;;;11.46;100.00;99928.94;5067086;28;20237;-76
2022/11/09 01:00:49;;;;;;;6.13;4.93;;;;;;;11.47;100.00;99930.66;5064603;28;20217;-77
2022/11/09 01:03:15;;;;;;;5.20;4.70;;;;;;;11.48;100.00;99927.19;5062432;28;20182;-76
2022/11/09 01:05:40;;;;;;;5.43;4.93;;;;;;;11.47;100.00;99922.88;5060971;28;20244;-75
2022/11/09 01:08:06;;;;;;;4.97;4.57;;;;;;;11.47;100.00;99922.88;5061305;28;20238;-76
2022/11/09 01:10:31;;;;;;;6.07;4.50;;;;;;;11.46;100.00;99908.22;5055467;28;20258;-77
2022/11/09 01:12:57;;;;;;;4.67;4.27;;;;;;;11.45;100.00;99909.94;5062980;28;20187;-75
2022/11/09 01:15:22;;;;;;;4.70;4.30;;;;;;;11.46;100.00;99919.41;5059825;28;20275;-77
2022/11/09 01:17:48;;;;;;;6.20;4.50;;;;;;;11.47;100.00;99912.50;5065211;28;20182;-73
2022/11/09 01:20:14;;;;;;;4.63;4.23;;;;;;;11.47;100.00;99909.91;5068722;28;20702;-76
2022/11/09 01:22:40;;;;;;;4.67;4.27;;;;;;;11.48;100.00;99911.63;5063168;28;20205;-74
2022/11/09 01:25:06;;;;;;;4.83;4.00;;;;;;;11.48;100.00;99919.41;5068887;28;20229;-74
2022/11/09 01:27:32;;;;;;;3.90;3.47;;;;;;;11.50;100.00;99915.03;5061128;28;21032;-75
2022/11/09 01:29:57;;;;;;;4.63;4.23;;;;;;;11.50;100.00;99913.28;5067563;28;20234;-73
2022/11/09 01:32:22;;;;;;;4.27;3.93;;;;;;;11.50;100.00;99921.06;5062932;28;20218;-76
2022/11/09 01:34:48;;;;;;;4.30;3.90;;;;;;;11.51;100.00;99920.19;5061022;28;20187;-74
2022/11/09 01:37:13;;;;;;;4.43;4.03;;;;;;;11.52;100.00;99924.50;5052922;28;20221;-76
2022/11/09 01:39:38;;;;;;;4.33;3.90;;;;;;;11.54;100.00;99940.00;5058387;28;20187;-75
2022/11/09 01:42:04;;;;;;;4.40;4.00;;;;;;;11.54;100.00;99948.66;5060838;28;20244;-74
2022/11/09 01:44:29;;;;;;;4.67;3.90;;;;;;;11.55;100.00;99936.53;5069122;28;20213;-75
2022/11/09 01:47:02;;;;;;;4.43;4.03;;;;;;;11.56;100.00;99918.38;5067393;28;20655;-76
2022/11/09 01:49:54;;;;;;;4.47;4.07;;;;;;;11.55;100.00;99923.56;5062209;28;20234;-76
2022/11/09 01:52:34;;;;;;;4.00;3.70;;;;;;;11.55;100.00;99928.75;5058027;28;21055;-75
2022/11/09 01:55:14;;;;;;;5.37;4.00;;;;;;;11.56;100.00;99933.94;5062237;28;20228;-75
2022/11/09 01:57:46;;;;;;;4.70;4.30;;;;;;;11.57;100.00;99930.41;5065689;28;20198;-78
2022/11/09 02:00:13;;;;;;;5.17;4.33;;;;;;;11.59;100.00;99927.81;5066078;28;20255;-74
2022/11/09 02:02:45;;;;;;;4.80;4.40;;;;;;;11.59;100.00;99920.88;5062001;28;20195;-74
2022/11/09 02:05:14;;;;;;;5.00;4.50;;;;;;;11.60;100.00;99926.94;5060577;28;20233;-73
2022/11/09 02:07:41;;;;;;;4.87;4.47;;;;;;;11.61;100.00;99915.69;5064969;28;20196;-76
2022/11/09 02:10:13;;;;;;;4.57;4.17;;;;;;;11.62;100.00;99921.72;5065590;28;20230;-74
2022/11/09 02:12:39;;;;;;;4.77;4.37;;;;;;;11.61;100.00;99926.06;5056378;28;20197;-74
2022/11/09 02:15:09;;;;;;;4.63;4.23;;;;;;;11.62;100.00;99930.38;5062042;28;20215;-76
2022/11/09 02:17:35;;;;;;;5.50;5.00;;;;;;;11.63;100.00;99932.06;5068677;28;20186;-74
2022/11/09 02:20:08;;;;;;;4.77;4.37;;;;;;;11.64;100.00;99931.19;5058564;28;20271;-76
2022/11/09 02:22:33;;;;;;;4.97;4.57;;;;;;;11.64;100.00;99938.09;5058838;28;20208;-75
2022/11/09 02:24:58;;;;;;;5.07;4.67;;;;;;;11.64;100.00;99931.19;5065666;28;20737;-75
2022/11/09 02:27:24;;;;;;;4.83;4.43;;;;;;;11.62;100.00;99929.50;5065171;28;20187;-74
2022/11/09 02:29:50;;;;;;;5.00;4.60;;;;;;;11.62;100.00;99935.53;5076832;28;20793;-74
2022/11/09 02:32:19;;;;;;;4.67;4.27;;;;;;;11.63;100.00;99929.47;5061333;28;20182;-75
2022/11/09 02:34:45;;;;;;;4.87;4.47;;;;;;;11.64;100.00;99931.19;5063013;28;20173;-76
2022/11/09 02:37:10;;;;;;;4.90;4.50;;;;;;;11.64;100.00;99933.78;5066167;28;20195;-74
2022/11/09 02:39:37;;;;;;;4.67;4.27;;;;;;;11.66;100.00;99932.00;5064185;28;20253;-77
2022/11/09 02:42:07;;;;;;;4.10;3.70;;;;;;;11.67;100.00;99927.66;5065447;28;20190;-74
2022/11/09 02:44:44;;;;;;;4.83;4.33;;;;;;;11.69;100.00;99912.94;5067421;28;20201;-75
2022/11/09 02:47:09;;;;;;;4.03;3.73;;;;;;;11.67;100.00;99907.78;5069573;28;20190;-76
2022/11/09 02:49:35;;;;;;;4.77;4.37;;;;;;;11.66;100.00;99890.50;5069171;28;20186;-75
2022/11/09 02:52:00;;;;;;;4.90;4.37;;;;;;;11.66;100.00;99897.44;5066388;28;20184;-75
2022/11/09 02:54:26;;;;;;;4.50;4.10;;;;;;;11.64;100.00;99900.09;5064295;28;20661;-75
2022/11/09 02:56:51;;;;;;;4.17;3.77;;;;;;;11.64;100.00;99884.53;5062516;28;20186;-75
2022/11/09 02:59:16;;;;;;;4.50;4.10;;;;;;;11.65;100.00;99886.22;5064893;28;20271;-74
2022/11/09 03:01:42;;;;;;;4.50;4.10;;;;;;;11.65;100.00;99890.56;5062414;28;20250;-74
2022/11/09 03:04:07;;;;;;;3.90;3.50;;;;;;;11.66;100.00;99880.16;5062770;28;20224;-74
2022/11/09 03:06:33;;;;;;;3.63;3.33;;;;;;;11.67;100.00;99878.44;5057629;28;20190;-75
2022/11/09 03:09:08;;;;;;;3.60;3.30;;;;;;;11.67;100.00;99866.31;5064833;28;20182;-75
2022/11/09 03:11:34;;;;;;;3.53;3.23;;;;;;;11.67;100.00;99862.88;5063557;28;20202;-75
2022/11/09 03:14:00;;;;;;;3.93;3.63;;;;;;;11.67;100.00;99863.72;5066080;28;20765;-76
2022/11/09 03:16:25;;;;;;;3.77;3.40;;;;;;;11.67;100.00;99855.09;5058391;28;20187;-77
2022/11/09 03:18:51;;;;;;;3.47;3.17;;;;;;;11.68;100.00;99849.88;5061677;28;20563;-76
2022/11/09 03:21:16;;;;;;;3.80;3.50;;;;;;;11.69;100.00;99859.34;5068813;28;20197;-77
2022/11/09 03:23:42;;;;;;;3.90;3.60;;;;;;;11.69;100.00;99863.69;5067286;28;21092;-76
2022/11/09 03:26:07;;;;;;;3.40;3.10;;;;;;;11.71;100.00;99872.31;5065109;28;20190;-77
2022/11/09 03:28:33;;;;;;;3.07;2.87;;;;;;;11.73;100.00;99870.50;5060159;28;20185;-76
2022/11/09 03:30:58;;;;;;;3.03;2.83;;;;;;;11.74;100.00;99865.31;5064521;28;20207;-76
2022/11/09 03:33:23;;;;;;;2.93;2.73;;;;;;;11.76;100.00;99860.09;5059855;28;20228;-76
2022/11/09 03:35:50;;;;;;;3.03;2.60;;;;;;;11.78;100.00;99867.84;5064470;28;20188;-76
2022/11/09 03:38:15;;;;;;;2.70;2.40;;;;;;;11.81;100.00;99862.56;5065775;28;20178;-77
2022/11/09 03:40:41;;;;;;;2.80;2.47;;;;;;;11.82;100.00;99861.69;5071919;28;20213;-78
2022/11/09 03:43:06;;;;;;;2.43;2.20;;;;;;;11.87;100.00;99872.81;5066035;28;20572;-77
2022/11/09 03:45:31;;;;;;;3.17;2.20;;;;;;;11.88;100.00;99870.19;5063894;28;20830;-76
2022/11/09 03:47:59;;;;;;;2.57;1.83;;;;;;;11.92;100.00;99881.38;5061681;28;20189;-75
2022/11/09 03:50:28;;;;;;;2.63;1.93;;;;;;;11.94;100.00;99889.97;5063451;28;20551;-77
2022/11/09 03:52:53;;;;;;;2.67;1.70;;;;;;;11.96;100.00;99895.97;5061588;28;20195;-77
2022/11/09 03:55:19;;;;;;;2.00;1.70;;;;;;;11.98;100.00;99893.34;5065493;28;20630;-76
2022/11/09 03:57:45;;;;;;;2.57;1.70;;;;;;;11.99;100.00;99898.53;5065928;28;20201;-76
2022/11/09 04:00:12;;;;;;;3.00;1.90;;;;;;;12.00;100.00;99895.06;5063552;28;20212;-76
2022/11/09 04:02:38;;;;;;;1.93;1.73;;;;;;;12.00;100.00;99897.63;5060829;28;20194;-78
2022/11/09 04:05:04;;;;;;;1.97;1.40;;;;;;;12.01;100.00;99901.09;5061151;28;20221;-77
2022/11/09 04:07:30;;;;;;;2.33;1.63;;;;;;;12.01;100.00;99901.09;5063539;28;20211;-76
2022/11/09 04:09:55;;;;;;;1.40;1.30;;;;;;;12.00;100.00;99902.00;5063080;28;20302;-76
2022/11/09 04:12:20;;;;;;;2.20;1.50;;;;;;;12.01;100.00;99907.13;5068441;28;20182;-77
2022/11/09 04:14:46;;;;;;;1.30;1.20;;;;;;;12.03;100.00;99907.09;5066543;28;20709;-77
2022/11/09 04:17:11;;;;;;;1.50;1.40;;;;;;;12.02;100.00;99897.63;5066128;28;20678;-76
2022/11/09 04:19:36;;;;;;;1.60;1.40;;;;;;;12.03;100.00;99907.97;5060111;28;20183;-75
2022/11/09 04:22:02;;;;;;;1.80;1.50;;;;;;;12.03;100.00;99901.91;5055964;28;20651;-77
2022/11/09 04:24:27;;;;;;;2.23;1.23;;;;;;;12.04;100.00;99906.19;5066733;28;20805;-76
2022/11/09 04:26:52;;;;;;;1.57;1.47;;;;;;;12.04;100.00;99906.19;5060320;28;20646;-76
2022/11/09 04:29:18;;;;;;;1.40;1.30;;;;;;;12.04;100.00;99901.88;5085138;28;20192;-77
2022/11/09 04:31:43;;;;;;;1.30;1.20;;;;;;;12.05;100.00;99892.34;5103326;28;20366;-76
2022/11/09 04:34:08;;;;;;;2.23;1.30;;;;;;;12.06;100.00;99895.81;5090937;28;20177;-76
2022/11/09 04:36:34;;;;;;;2.37;2.20;;;;;;;12.03;100.00;99887.22;5096330;28;20199;-75
2022/11/09 04:38:59;;;;;;;12.27;11.30;;;;;;;12.04;100.00;99891.50;5089974;28;20184;-76
2022/11/09 04:41:26;;;;;;;15.63;14.57;;;;;;;12.05;100.00;99887.16;5094470;28;20221;-76
2022/11/09 04:43:51;;;;;;;11.57;10.73;;;;;;;12.07;100.00;99884.56;5083826;28;20212;-76
2022/11/09 04:46:17;;;;;;;7.57;7.07;;;;;;;12.06;100.00;99881.09;5078999;28;20183;-76
2022/11/09 04:48:43;;;;;;;5.50;5.10;;;;;;;12.06;100.00;99880.25;5065723;28;20187;-77
2022/11/09 04:51:09;;;;;;;4.03;3.73;;;;;;;12.05;100.00;99884.56;5074980;28;20207;-77
2022/11/09 04:53:36;;;;;;;3.50;3.20;;;;;;;12.05;100.00;99876.78;5063458;28;20173;-76
2022/11/09 04:56:02;;;;;;;3.07;2.77;;;;;;;12.05;100.00;99876.78;5056449;28;20723;-76
2022/11/09 04:58:27;;;;;;;2.87;2.10;;;;;;;12.04;100.00;99867.31;5058652;28;20189;-77
2022/11/09 05:00:53;;;;;;;2.43;2.23;;;;;;;12.04;100.00;99859.53;5061041;28;22210;-77
2022/11/09 05:03:19;;;;;;;2.17;1.97;;;;;;;12.04;100.00;99855.19;5070073;28;20805;-77
2022/11/09 05:05:45;;;;;;;2.50;2.30;;;;;;;12.05;100.00;99858.63;5066809;28;20242;-77
2022/11/09 05:08:10;;;;;;;3.57;2.70;;;;;;;12.08;100.00;99852.56;5067506;28;20189;-77
2022/11/09 05:10:36;;;;;;;2.73;2.53;;;;;;;12.09;100.00;99849.06;5069938;28;20731;-76
2022/11/09 05:13:04;;;;;;;4.33;4.03;;;;;;;12.10;100.00;99856.81;5062285;28;20187;-76
2022/11/09 05:15:29;;;;;;;4.70;4.30;;;;;;;12.11;100.00;99855.06;5059795;28;20178;-76
2022/11/09 05:17:55;;;;;;;4.73;4.40;;;;;;;12.13;100.00;99858.47;5060922;28;20193;-76
2022/11/09 05:20:21;;;;;;;3.90;3.57;;;;;;;12.14;100.00;99865.38;5062264;28;20300;-77
2022/11/09 05:25:32;;;;;;;3.10;2.80;;;;;;;12.14;100.00;99863.63;5048373;28;20312;-76
2022/11/09 05:27:57;;;;;;;3.37;3.17;;;;;;;12.14;100.00;99868.81;5060755;28;20179;-76
2022/11/09 05:30:23;;;;;;;3.87;3.53;;;;;;;12.15;100.00;99874.84;5062691;28;20214;-77
2022/11/09 05:32:48;;;;;;;7.53;6.73;;;;;;;12.16;100.00;99886.94;5070344;28;20189;-76
2022/11/09 05:35:14;;;;;;;4.57;4.17;;;;;;;12.16;100.00;99897.31;5062873;28;20190;-76
2022/11/09 05:37:40;;;;;;;3.50;3.20;;;;;;;12.16;100.00;99905.09;5066626;28;20277;-76
2022/11/09 05:40:08;;;;;;;3.80;2.87;;;;;;;12.16;100.00;99905.97;5065844;28;20327;-75
2022/11/09 05:42:33;;;;;;;3.63;2.07;;;;;;;12.15;100.00;99918.94;5060608;28;20183;-76
2022/11/09 05:45:00;;;;;;;2.43;1.97;;;;;;;12.13;100.00;99936.28;5064043;28;20215;-76
2022/11/09 05:47:25;;;;;;;2.80;2.40;;;;;;;12.12;100.00;99956.19;5063783;28;20208;-76
2022/11/09 05:49:50;;;;;;;2.43;2.20;;;;;;;12.08;100.00;99958.88;5065222;28;20675;-76
2022/11/09 05:52:16;;;;;;;2.60;2.10;;;;;;;12.06;100.00;99977.06;5059037;28;20264;-77
2022/11/09 05:54:41;;;;;;;2.67;2.47;;;;;;;12.04;100.00;99973.63;5065496;28;20254;-76
2022/11/09 05:57:06;;;;;;;3.33;2.50;;;;;;;12.04;100.00;99966.72;5064233;28;20640;-77
2022/11/09 05:59:31;;;;;;;3.10;2.80;;;;;;;12.03;100.00;99969.34;5070067;28;20657;-77
2022/11/09 06:01:57;;;;;;;5.67;3.03;;;;;;;12.00;100.00;99972.84;5070164;28;20637;-76
2022/11/09 06:04:22;;;;;;;3.20;2.90;;;;;;;11.95;100.00;99974.63;5066202;28;20670;-77
2022/11/09 06:06:47;;;;;;;3.37;2.73;;;;;;;11.90;100.00;99964.38;5069203;28;20221;-76
2022/11/09 06:09:13;;;;;;;3.47;3.00;;;;;;;11.86;100.00;99974.84;5066351;28;20190;-77
2022/11/09 06:11:38;;;;;;;2.53;2.00;;;;;;;11.82;100.00;99975.75;5070839;28;20270;-78
2022/11/09 06:14:03;;;;;;;1.73;1.53;;;;;;;11.78;100.00;99980.16;5063623;28;20599;-76
2022/11/09 06:16:29;;;;;;;1.30;1.20;;;;;;;11.74;100.00;99970.72;5064677;28;20188;-77
2022/11/09 06:18:54;;;;;;;1.30;1.10;;;;;;;11.71;100.00;99970.81;5060687;28;20277;-77
2022/11/09 06:21:20;;;;;;;1.30;1.10;;;;;;;11.70;100.00;99969.09;5072763;28;20206;-77
2022/11/09 06:23:45;;;;;;;1.77;1.23;;;;;;;11.70;100.00;99961.31;5064857;28;20742;-78
2022/11/09 06:26:11;;;;;;;1.27;1.10;;;;;;;11.69;100.00;99959.63;5064319;28;20283;-76
2022/11/09 06:28:38;;;;;;;1.17;1.10;;;;;;;11.69;100.00;99969.97;5065632;28;20662;-77
2022/11/09 06:31:05;;;;;;;1.40;1.10;;;;;;;11.69;100.00;99962.19;5076150;28;20196;-77
2022/11/09 06:33:32;;;;;;;1.50;1.20;;;;;;;11.68;100.00;99958.75;5059878;28;20289;-76
2022/11/09 06:35:58;;;;;;;1.20;1.10;;;;;;;11.68;100.00;99960.50;5065004;28;20270;-76
2022/11/09 06:38:25;;;;;;;2.17;1.17;;;;;;;11.68;100.00;99956.16;5070107;28;20269;-77
2022/11/09 06:40:52;;;;;;;1.90;1.40;;;;;;;11.68;100.00;99958.75;5066184;28;20211;-76
2022/11/09 06:43:17;;;;;;;3.00;1.47;;;;;;;11.69;100.00;99965.63;5060659;28;20175;-76
2022/11/09 06:45:43;;;;;;;1.30;1.10;;;;;;;11.70;100.00;99963.91;5058830;28;20584;-77
2022/11/09 06:48:09;;;;;;;1.40;1.20;;;;;;;11.70;100.00;99966.50;5060869;28;20191;-77
2022/11/09 06:50:35;;;;;;;1.57;1.40;;;;;;;11.70;100.00;99969.09;5060904;28;20693;-76
2022/11/09 06:53:02;;;;;;;1.27;1.10;;;;;;;11.69;100.00;99968.22;5068732;28;20226;-77
2022/11/09 06:55:29;;;;;;;1.70;1.03;;;;;;;11.70;100.00;99975.13;5065166;28;20193;-77
2022/11/09 06:57:55;;;;;;;1.10;1.00;;;;;;;11.70;100.00;99975.13;5073513;28;20176;-77
2022/11/09 07:00:22;;;;;;;0.97;0.90;;;;;;;11.71;100.00;99971.66;5073444;28;20279;-76
2022/11/09 07:02:48;;;;;;;0.97;0.70;;;;;;;11.71;100.00;99971.66;5069641;28;20189;-77
2022/11/09 07:05:13;;;;;;;1.23;1.00;;;;;;;11.73;100.00;99985.44;5072222;28;20186;-77
2022/11/09 07:07:38;;;;;;;1.03;0.90;;;;;;;11.74;100.00;99981.97;5070608;28;20187;-77
2022/11/09 07:10:04;;;;;;;1.37;1.00;;;;;;;11.77;100.00;99985.38;5069516;28;20215;-76
2022/11/09 07:12:31;;;;;;;1.50;1.20;;;;;;;11.79;100.00;99986.22;5069895;28;20186;-76
2022/11/09 07:14:56;;;;;;;1.80;1.30;;;;;;;11.80;100.00;99981.00;5065029;28;20185;-76
2022/11/09 07:17:22;;;;;;;1.90;1.40;;;;;;;11.83;100.00;99987.84;5068976;28;20190;-76
2022/11/09 07:19:47;;;;;;;1.70;1.47;;;;;;;11.86;100.00;99980.00;5065178;28;20183;-77
2022/11/09 07:22:12;;;;;;;1.57;1.37;;;;;;;11.89;100.00;99982.56;5061594;28;20253;-76
2022/11/09 07:24:38;;;;;;;1.80;1.40;;;;;;;11.94;100.00;99972.97;5094351;28;20230;-75
2022/11/09 07:27:03;;;;;;;2.03;1.47;;;;;;;11.98;100.00;99961.66;5101009;28;20196;-75
2022/11/09 07:29:28;;;;;;;1.63;1.53;;;;;;;12.02;100.00;99955.53;5068515;28;20617;-76
2022/11/09 07:31:54;;;;;;;1.60;1.50;;;;;;;12.04;100.00;99953.75;5074532;28;20293;-77
2022/11/09 07:34:19;;;;;;;2.07;1.37;;;;;;;12.08;100.00;99943.31;5070610;28;20711;-77
2022/11/09 07:36:45;;;;;;;1.30;1.00;;;;;;;12.11;100.00;99940.66;5067195;28;20679;-77
2022/11/09 07:39:10;;;;;;;1.57;1.30;;;;;;;12.15;100.00;99939.69;5076854;28;20218;-77
2022/11/09 07:41:36;;;;;;;1.30;1.10;;;;;;;12.21;100.00;99937.00;5068958;28;20210;-75
2022/11/09 07:44:01;;;;;;;1.20;1.10;;;;;;;12.25;100.00;99930.81;5059798;28;20229;-77
2022/11/09 07:46:26;;;;;;;1.40;1.30;;;;;;;12.31;100.00;99929.88;5070841;28;20667;-78
2022/11/09 07:48:52;;;;;;;1.50;1.20;;;;;;;12.35;100.00;99936.69;5069992;28;20219;-75
2022/11/09 07:51:17;;;;;;;1.10;1.00;;;;;;;12.37;100.00;99945.28;5079967;28;20296;-75
2022/11/09 07:53:42;;;;;;;1.30;1.00;;;;;;;12.40;100.00;99949.56;5063750;28;20221;-77
2022/11/09 07:56:08;;;;;;;1.20;0.97;;;;;;;12.41;100.00;99944.34;5073740;28;20597;-78
2022/11/09 07:58:34;;;;;;;1.00;0.90;;;;;;;12.44;100.00;99952.06;5071828;28;20627;-79
2022/11/09 08:01:00;;;;;;;1.00;0.90;;;;;;;12.50;100.00;99945.88;5066217;28;20491;-76
2022/11/09 08:03:25;;;;;;;1.10;0.73;;;;;;;12.61;100.00;99956.03;5062611;28;20191;-77
2022/11/09 08:05:51;;;;;;;0.67;0.60;;;;;;;12.73;100.00;99960.94;5059643;28;20323;-76
2022/11/09 08:08:16;;;;;;;0.70;0.50;;;;;;;12.83;100.00;99960.69;5066192;28;20195;-76
2022/11/09 08:10:44;;;;;;;1.33;0.60;;;;;;;12.92;100.00;99974.34;5063200;28;20295;-76
2022/11/09 08:13:12;;;;;;;0.50;0.50;;;;;;;13.01;100.00;99975.84;5066070;28;20186;-77
2022/11/09 08:15:38;;;;;;;0.60;0.50;;;;;;;13.08;100.00;99979.16;5064462;28;20235;-76
2022/11/09 08:18:06;;;;;;;0.60;0.50;;;;;;;13.18;100.00;99982.38;5073651;28;20197;-77
2022/11/09 08:20:33;;;;;;;0.87;0.70;;;;;;;13.27;100.00;99976.94;5065471;28;20702;-76
2022/11/09 08:22:58;;;;;;;0.50;0.50;;;;;;;13.33;100.00;99979.41;5069934;28;20185;-76
2022/11/09 08:25:23;;;;;;;0.90;0.50;;;;;;;13.38;100.00;99974.97;5069221;28;20209;-77
2022/11/09 08:27:49;;;;;;;1.50;0.87;;;;;;;13.43;100.00;99974.88;5065836;28;20290;-76
2022/11/09 08:30:17;;;;;;;0.70;0.60;;;;;;;13.48;100.00;99977.34;5064660;28;20702;-77
2022/11/09 08:32:44;;;;;;;0.80;0.57;;;;;;;13.54;100.00;99982.34;5066373;28;20196;-76
2022/11/09 08:35:11;;;;;;;0.93;0.67;;;;;;;13.62;100.00;99975.22;5065418;28;20709;-77
2022/11/09 08:37:37;;;;;;;1.10;0.60;;;;;;;13.71;100.00;99972.38;5061090;28;20186;-75
2022/11/09 08:40:04;;;;;;;0.70;0.40;;;;;;;13.79;100.00;99974.75;5069456;28;20599;-77
2022/11/09 08:42:30;;;;;;;1.10;0.53;;;;;;;13.84;100.00;99969.47;5068954;28;20185;-76
2022/11/09 08:44:55;;;;;;;1.23;0.40;;;;;;;13.90;100.00;99977.06;5062771;28;20203;-78
2022/11/09 08:47:20;;;;;;;0.70;0.60;;;;;;;13.95;100.00;99984.75;5062463;28;20218;-75
2022/11/09 08:49:46;;;;;;;1.00;0.67;;;;;;;13.99;100.00;99986.38;5067736;28;20628;-77
2022/11/09 08:52:12;;;;;;;0.90;0.80;;;;;;;14.02;100.00;99986.28;5067894;28;20181;-76
2022/11/09 08:54:37;;;;;;;1.53;1.43;;;;;;;14.06;100.00;99982.72;5068985;28;20191;-77
2022/11/09 08:57:03;;;;;;;4.50;4.10;;;;;;;14.08;100.00;99985.25;5060331;28;20195;-77
2022/11/09 08:59:28;;;;;;;5.13;4.73;;;;;;;14.11;100.00;99991.22;5061037;28;20209;-77
2022/11/09 09:01:53;;;;;;;4.73;4.33;;;;;;;14.15;100.00;99990.25;5062456;28;20252;-76
2022/11/09 09:04:19;;;;;;;4.23;3.93;;;;;;;14.24;100.00;99990.88;5068402;28;20229;-77
2022/11/09 09:06:44;;;;;;;3.30;3.00;;;;;;;14.31;100.00;99993.25;5071587;28;20214;-76
2022/11/09 09:09:10;;;;;;;2.70;2.50;;;;;;;14.38;100.00;99991.31;5064681;28;20792;-77
2022/11/09 09:11:35;;;;;;;2.03;1.90;;;;;;;14.44;100.00;99987.72;5059804;28;21034;-77
2022/11/09 09:14:00;;;;;;;2.60;1.50;;;;;;;14.51;100.00;99993.59;5055266;28;20622;-76
2022/11/09 09:16:26;;;;;;;1.73;1.10;;;;;;;14.63;100.00;99995.81;5068939;28;20249;-76
2022/11/09 09:18:51;;;;;;;1.03;0.93;;;;;;;14.76;100.00;99988.47;5069130;28;20277;-76
2022/11/09 09:21:17;;;;;;;0.70;0.70;;;;;;;14.92;100.00;99981.06;5063034;28;20667;-76
2022/11/09 09:23:42;;;;;;;1.47;0.60;;;;;;;15.11;100.00;99990.88;5068148;28;20221;-77
2022/11/09 09:26:07;;;;;;;0.70;0.70;;;;;;;15.29;100.00;99989.41;5065854;28;20219;-76
2022/11/09 09:28:33;;;;;;;0.90;0.70;;;;;;;15.46;100.00;99992.31;5066226;28;20191;-77
2022/11/09 09:30:59;;;;;;;0.70;0.70;;;;;;;15.60;100.00;99999.66;5065373;28;20694;-76
2022/11/09 09:33:26;;;;;;;0.50;0.50;;;;;;;15.72;100.00;100002.75;5073724;28;20565;-77
2022/11/09 09:35:55;;;;;;;0.73;0.70;;;;;;;15.82;100.00;99997.16;5062093;28;20200;-77
2022/11/09 09:38:20;;;;;;;1.67;0.60;;;;;;;15.92;100.00;100004.69;5056215;28;20222;-76
2022/11/09 09:40:59;;;;;;;0.50;0.50;;;;;;;15.95;100.00;100005.44;5061915;28;20643;-76
2022/11/09 09:43:30;;;;;;;0.40;0.40;;;;;;;15.95;100.00;100004.59;5057940;28;20277;-77
2022/11/09 09:45:57;;;;;;;0.73;0.63;;;;;;;15.96;100.00;100006.25;5061338;28;20239;-77
2022/11/09 09:48:41;;;;;;;0.73;0.53;;;;;;;15.93;100.00;100007.25;5065131;28;20255;-77
2022/11/09 09:51:16;;;;;;;0.97;0.80;;;;;;;15.92;100.00;100010.75;5066954;28;20202;-77
2022/11/09 09:53:53;;;;;;;0.93;0.60;;;;;;;15.90;100.00;100014.34;5061734;28;20239;-76
2022/11/09 09:56:32;;;;;;;0.60;0.60;;;;;;;15.94;100.00;100014.16;5059099;28;20874;-76
2022/11/09 09:59:04;;;;;;;0.60;0.60;;;;;;;16.03;100.00;100025.19;5067828;28;20195;-77
2022/11/09 10:01:37;;;;;;;0.50;0.50;;;;;;;16.12;100.00;100020.47;5065287;28;20201;-77
2022/11/09 10:04:13;;;;;;;0.77;0.77;;;;;;;16.23;100.00;100024.47;5067892;28;20281;-78
2022/11/09 10:06:45;;;;;;;1.33;0.80;;;;;;;16.28;100.00;100015.56;5063346;28;20248;-77
2022/11/09 10:09:33;;;;;;;0.60;0.60;;;;;;;16.36;100.00;100023.09;5068724;28;20521;-76
2022/11/09 10:12:35;;;;;;;1.17;0.73;;;;;;;16.41;100.00;100007.25;5062363;28;20211;-76
2022/11/09 10:15:25;;;;;;;2.30;0.73;;;;;;;16.41;100.00;100002.03;5057589;28;20180;-76
2022/11/09 10:17:59;;;;;;;0.70;0.60;;;;;;;16.39;100.00;100011.69;5063726;28;20519;-76
2022/11/09 10:20:42;;;;;;;0.83;0.80;;;;;;;16.43;100.00;100021.94;5069949;28;20570;-76
2022/11/09 10:23:16;;;;;;;1.37;1.07;;;;;;;16.47;100.00;100017.47;5059330;28;20204;-76
2022/11/09 10:25:44;;;;;;;0.83;0.80;;;;;;;16.47;100.00;100017.47;5064538;28;20218;-76
2022/11/09 10:28:14;;;;;;;1.10;0.80;;;;;;;16.43;100.00;100018.50;5070026;28;20268;-76
2022/11/09 10:30:40;;;;;;;1.00;0.90;;;;;;;16.37;100.00;100019.59;5065265;28;20202;-75
2022/11/09 10:33:20;;;;;;;0.70;0.70;;;;;;;16.35;100.00;100017.91;5071455;28;20201;-77
2022/11/09 10:35:51;;;;;;;0.80;0.73;;;;;;;16.36;100.00;100017.00;5064321;28;20179;-76
2022/11/09 10:38:22;;;;;;;0.97;0.87;;;;;;;16.37;100.00;100014.38;5069917;28;20654;-76
2022/11/09 10:40:56;;;;;;;1.77;1.03;;;;;;;16.38;100.00;100013.47;5058727;28;20710;-76
2022/11/09 10:43:22;;;;;;;0.80;0.80;;;;;;;16.36;100.00;100006.56;5057943;28;20193;-75
2022/11/09 10:46:05;;;;;;;1.50;0.93;;;;;;;16.37;100.00;100013.50;5058982;28;20253;-77
2022/11/09 10:48:39;;;;;;;0.80;0.80;;;;;;;16.33;100.00;100010.16;5068843;28;20230;-76
2022/11/09 10:51:24;;;;;;;0.90;0.83;;;;;;;16.28;100.00;100014.69;5066251;28;20689;-76
2022/11/09 10:54:14;;;;;;;1.10;1.00;;;;;;;16.22;100.00;100007.94;5061068;28;20195;-77
2022/11/09 10:56:45;;;;;;;1.50;1.00;;;;;;;16.21;100.00;100005.41;5061154;28;20229;-77
2022/11/09 10:59:35;;;;;;;2.07;1.00;;;;;;;16.19;100.00;100005.44;5069439;28;20190;-77
2022/11/09 11:02:01;;;;;;;1.40;1.20;;;;;;;16.18;100.00;100013.34;5061771;28;21019;-76
2022/11/09 11:04:26;;;;;;;1.23;1.10;;;;;;;16.18;100.00;100008.09;5061813;28;20208;-76
2022/11/09 11:06:52;;;;;;;1.80;1.20;;;;;;;16.21;100.00;100011.44;5064050;28;20649;-76
2022/11/09 11:09:19;;;;;;;2.40;1.50;;;;;;;16.27;100.00;99998.19;5066556;28;20197;-76
2022/11/09 11:11:45;;;;;;;1.57;1.00;;;;;;;16.33;100.00;100007.53;5064956;28;20579;-77
2022/11/09 11:14:32;;;;;;;1.37;0.97;;;;;;;16.35;100.00;100008.34;5064860;28;20190;-76
2022/11/09 11:16:58;;;;;;;1.20;1.00;;;;;;;16.37;100.00;100003.91;5061501;28;20294;-76
2022/11/09 11:19:44;;;;;;;2.07;0.90;;;;;;;16.40;100.00;100002.94;5065162;28;20315;-76
2022/11/09 11:22:19;;;;;;;1.10;1.00;;;;;;;16.45;100.00;100009.69;5061733;28;20264;-76
2022/11/09 11:25:01;;;;;;;1.27;0.97;;;;;;;16.49;100.00;100005.19;5063464;28;20217;-77
2022/11/09 11:27:45;;;;;;;0.80;0.80;;;;;;;16.60;100.00;100010.88;5059098;28;20209;-75
2022/11/09 11:30:15;;;;;;;1.83;1.17;;;;;;;16.66;100.00;100008.91;5062442;28;22328;-77